sim
Sign-in with your pilot id or email,
or register
Callsign
Passwort

Schedule Details

Flight Number: OEO8812
Departure: Berlin Tegel Airport (EDDT) at 10:30
Arrival: Bremen Airport (EDDW) at 11:40

Weather Information
Getting current METAR information for EDDT 101920Z 29010KT 260V320 9999 SCT029 15/11 Q1014 NOSIG
Getting current METAR information for EDDW 101920Z 29008KT 9999 FEW030 14/10 Q1016 NOSIG

Schedule Frequency

Route Map